sensor_id;sensor_type;location;lat;lon;timestamp;P1;durP1;ratioP1;P2;durP2;ratioP2
23696;SDS011;48864;50.820;4.400;2022-07-10T00:01:04;4.63;;;1.90;;
23696;SDS011;48864;50.820;4.400;2022-07-10T00:03:32;5.53;;;2.22;;
23696;SDS011;48864;50.820;4.400;2022-07-10T00:05:57;8.45;;;2.13;;
23696;SDS011;48864;50.820;4.400;2022-07-10T00:08:23;8.00;;;1.77;;
23696;SDS011;48864;50.820;4.400;2022-07-10T00:10:48;7.40;;;2.05;;
23696;SDS011;48864;50.820;4.400;2022-07-10T00:13:14;5.30;;;1.80;;
23696;SDS011;48864;50.820;4.400;2022-07-10T00:15:39;4.07;;;1.92;;
23696;SDS011;48864;50.820;4.400;2022-07-10T00:18:05;4.85;;;1.83;;
23696;SDS011;48864;50.820;4.400;2022-07-10T00:20:31;4.03;;;2.20;;
23696;SDS011;48864;50.820;4.400;2022-07-10T00:22:57;5.82;;;2.42;;
23696;SDS011;48864;50.820;4.400;2022-07-10T00:25:22;9.93;;;2.63;;
23696;SDS011;48864;50.820;4.400;2022-07-10T00:27:48;3.90;;;2.60;;
23696;SDS011;48864;50.820;4.400;2022-07-10T00:30:13;7.65;;;2.28;;
23696;SDS011;48864;50.820;4.400;2022-07-10T00:32:39;4.10;;;2.30;;
23696;SDS011;48864;50.820;4.400;2022-07-10T00:35:05;6.13;;;2.30;;
23696;SDS011;48864;50.820;4.400;2022-07-10T00:37:32;4.13;;;2.25;;
23696;SDS011;48864;50.820;4.400;2022-07-10T00:39:57;4.53;;;2.10;;
23696;SDS011;48864;50.820;4.400;2022-07-10T00:42:24;7.38;;;2.28;;
23696;SDS011;48864;50.820;4.400;2022-07-10T00:44:51;5.65;;;2.25;;
23696;SDS011;48864;50.820;4.400;2022-07-10T00:47:16;5.05;;;2.08;;
23696;SDS011;48864;50.820;4.400;2022-07-10T00:49:44;4.60;;;2.05;;
23696;SDS011;48864;50.820;4.400;2022-07-10T00:52:12;3.95;;;2.15;;
23696;SDS011;48864;50.820;4.400;2022-07-10T00:54:42;3.70;;;1.75;;
23696;SDS011;48864;50.820;4.400;2022-07-10T00:57:09;3.95;;;1.90;;
23696;SDS011;48864;50.820;4.400;2022-07-10T00:59:36;5.53;;;1.90;;
23696;SDS011;48864;50.820;4.400;2022-07-10T01:02:02;3.15;;;2.05;;
23696;SDS011;48864;50.820;4.400;2022-07-10T01:04:29;4.90;;;2.05;;
23696;SDS011;48864;50.820;4.400;2022-07-10T01:06:55;3.58;;;1.70;;
23696;SDS011;48864;50.820;4.400;2022-07-10T01:09:21;7.85;;;2.00;;
23696;SDS011;48864;50.820;4.400;2022-07-10T01:11:46;7.75;;;2.15;;
23696;SDS011;48864;50.820;4.400;2022-07-10T01:14:12;4.68;;;1.70;;
23696;SDS011;48864;50.820;4.400;2022-07-10T01:16:39;3.63;;;1.90;;
23696;SDS011;48864;50.820;4.400;2022-07-10T01:19:05;4.60;;;1.70;;
23696;SDS011;48864;50.820;4.400;2022-07-10T01:21:32;2.72;;;1.63;;
23696;SDS011;48864;50.820;4.400;2022-07-10T01:23:59;6.68;;;1.70;;
23696;SDS011;48864;50.820;4.400;2022-07-10T01:26:29;8.90;;;1.88;;
23696;SDS011;48864;50.820;4.400;2022-07-10T01:28:54;2.67;;;1.70;;
23696;SDS011;48864;50.820;4.400;2022-07-10T01:31:27;3.30;;;1.63;;
23696;SDS011;48864;50.820;4.400;2022-07-10T01:33:53;5.30;;;1.80;;
23696;SDS011;48864;50.820;4.400;2022-07-10T01:36:20;6.25;;;1.83;;
23696;SDS011;48864;50.820;4.400;2022-07-10T01:38:47;6.05;;;1.98;;
23696;SDS011;48864;50.820;4.400;2022-07-10T01:41:13;6.68;;;2.00;;
23696;SDS011;48864;50.820;4.400;2022-07-10T01:43:38;5.28;;;1.90;;
23696;SDS011;48864;50.820;4.400;2022-07-10T01:46:09;4.47;;;1.85;;
23696;SDS011;48864;50.820;4.400;2022-07-10T01:48:36;5.53;;;1.77;;
23696;SDS011;48864;50.820;4.400;2022-07-10T01:53:34;3.88;;;1.75;;
23696;SDS011;48864;50.820;4.400;2022-07-10T01:56:00;5.55;;;1.77;;
23696;SDS011;48864;50.820;4.400;2022-07-10T01:58:29;4.15;;;1.80;;
23696;SDS011;48864;50.820;4.400;2022-07-10T02:00:56;3.58;;;1.85;;
23696;SDS011;48864;50.820;4.400;2022-07-10T02:03:21;6.88;;;1.88;;
23696;SDS011;48864;50.820;4.400;2022-07-10T02:06:06;5.75;;;1.80;;
23696;SDS011;48864;50.820;4.400;2022-07-10T02:08:32;5.55;;;1.90;;
23696;SDS011;48864;50.820;4.400;2022-07-10T02:10:58;6.30;;;1.58;;
23696;SDS011;48864;50.820;4.400;2022-07-10T02:13:23;3.95;;;1.73;;
23696;SDS011;48864;50.820;4.400;2022-07-10T02:15:52;5.00;;;1.48;;
23696;SDS011;48864;50.820;4.400;2022-07-10T02:18:21;4.60;;;1.90;;
23696;SDS011;48864;50.820;4.400;2022-07-10T02:20:47;4.47;;;1.70;;
23696;SDS011;48864;50.820;4.400;2022-07-10T02:23:13;4.30;;;1.80;;
23696;SDS011;48864;50.820;4.400;2022-07-10T02:25:39;4.18;;;2.33;;
23696;SDS011;48864;50.820;4.400;2022-07-10T02:28:04;4.75;;;1.67;;
23696;SDS011;48864;50.820;4.400;2022-07-10T02:30:30;7.45;;;2.00;;
23696;SDS011;48864;50.820;4.400;2022-07-10T02:35:27;6.15;;;1.70;;
23696;SDS011;48864;50.820;4.400;2022-07-10T02:37:53;3.70;;;1.70;;
23696;SDS011;48864;50.820;4.400;2022-07-10T02:40:18;6.47;;;1.85;;
23696;SDS011;48864;50.820;4.400;2022-07-10T02:42:44;6.68;;;1.85;;
23696;SDS011;48864;50.820;4.400;2022-07-10T02:45:10;4.95;;;1.70;;
23696;SDS011;48864;50.820;4.400;2022-07-10T02:47:35;8.45;;;1.95;;
23696;SDS011;48864;50.820;4.400;2022-07-10T02:50:01;2.25;;;1.40;;
23696;SDS011;48864;50.820;4.400;2022-07-10T02:52:27;3.65;;;1.42;;
23696;SDS011;48864;50.820;4.400;2022-07-10T02:54:55;4.88;;;1.42;;
23696;SDS011;48864;50.820;4.400;2022-07-10T02:57:21;3.03;;;1.45;;
23696;SDS011;48864;50.820;4.400;2022-07-10T02:59:47;5.15;;;2.05;;
23696;SDS011;48864;50.820;4.400;2022-07-10T03:02:18;5.05;;;1.95;;
23696;SDS011;48864;50.820;4.400;2022-07-10T03:04:44;6.53;;;1.90;;
23696;SDS011;48864;50.820;4.400;2022-07-10T03:07:09;4.40;;;1.60;;
23696;SDS011;48864;50.820;4.400;2022-07-10T03:09:35;4.20;;;1.77;;
23696;SDS011;48864;50.820;4.400;2022-07-10T03:12:04;3.95;;;1.67;;
23696;SDS011;48864;50.820;4.400;2022-07-10T03:14:30;8.30;;;1.77;;
23696;SDS011;48864;50.820;4.400;2022-07-10T03:16:55;5.80;;;1.83;;
23696;SDS011;48864;50.820;4.400;2022-07-10T03:19:21;3.75;;;1.60;;
23696;SDS011;48864;50.820;4.400;2022-07-10T03:21:46;6.45;;;1.67;;
23696;SDS011;48864;50.820;4.400;2022-07-10T03:24:12;9.48;;;1.90;;
23696;SDS011;48864;50.820;4.400;2022-07-10T03:26:38;3.22;;;1.70;;
23696;SDS011;48864;50.820;4.400;2022-07-10T03:29:03;5.75;;;1.70;;
23696;SDS011;48864;50.820;4.400;2022-07-10T03:31:29;4.63;;;1.60;;
23696;SDS011;48864;50.820;4.400;2022-07-10T03:33:54;6.05;;;1.60;;
23696;SDS011;48864;50.820;4.400;2022-07-10T03:36:20;3.35;;;1.48;;
23696;SDS011;48864;50.820;4.400;2022-07-10T03:38:46;4.97;;;1.50;;
23696;SDS011;48864;50.820;4.400;2022-07-10T03:41:12;3.90;;;1.45;;
23696;SDS011;48864;50.820;4.400;2022-07-10T03:43:38;5.75;;;1.55;;
23696;SDS011;48864;50.820;4.400;2022-07-10T03:46:03;3.92;;;1.70;;
23696;SDS011;48864;50.820;4.400;2022-07-10T03:48:29;3.80;;;1.65;;
23696;SDS011;48864;50.820;4.400;2022-07-10T03:50:54;5.05;;;1.50;;
23696;SDS011;48864;50.820;4.400;2022-07-10T03:53:20;5.53;;;1.60;;
23696;SDS011;48864;50.820;4.400;2022-07-10T03:55:46;5.68;;;1.50;;
23696;SDS011;48864;50.820;4.400;2022-07-10T03:58:11;4.53;;;1.60;;
23696;SDS011;48864;50.820;4.400;2022-07-10T04:00:37;4.82;;;1.65;;
23696;SDS011;48864;50.820;4.400;2022-07-10T04:03:06;4.72;;;1.60;;
23696;SDS011;48864;50.820;4.400;2022-07-10T04:05:32;5.45;;;1.90;;
23696;SDS011;48864;50.820;4.400;2022-07-10T04:07:59;2.38;;;1.70;;
23696;SDS011;48864;50.820;4.400;2022-07-10T04:10:26;3.78;;;1.35;;
23696;SDS011;48864;50.820;4.400;2022-07-10T04:12:53;10.73;;;2.00;;
23696;SDS011;48864;50.820;4.400;2022-07-10T04:15:18;2.70;;;1.70;;
23696;SDS011;48864;50.820;4.400;2022-07-10T04:17:45;4.13;;;1.85;;
23696;SDS011;48864;50.820;4.400;2022-07-10T04:20:19;5.25;;;1.60;;
23696;SDS011;48864;50.820;4.400;2022-07-10T04:22:45;2.85;;;1.67;;
23696;SDS011;48864;50.820;4.400;2022-07-10T04:25:11;3.80;;;1.50;;
23696;SDS011;48864;50.820;4.400;2022-07-10T04:27:38;4.57;;;1.70;;
23696;SDS011;48864;50.820;4.400;2022-07-10T04:30:03;2.65;;;1.70;;
23696;SDS011;48864;50.820;4.400;2022-07-10T04:32:30;5.75;;;2.05;;
23696;SDS011;48864;50.820;4.400;2022-07-10T04:34:56;5.03;;;1.70;;
23696;SDS011;48864;50.820;4.400;2022-07-10T04:37:22;4.93;;;1.83;;
23696;SDS011;48864;50.820;4.400;2022-07-10T04:39:48;7.57;;;1.85;;
23696;SDS011;48864;50.820;4.400;2022-07-10T04:42:13;2.80;;;1.60;;
23696;SDS011;48864;50.820;4.400;2022-07-10T04:44:39;3.58;;;2.22;;
23696;SDS011;48864;50.820;4.400;2022-07-10T04:47:05;6.38;;;1.98;;
23696;SDS011;48864;50.820;4.400;2022-07-10T04:49:31;3.00;;;1.80;;
23696;SDS011;48864;50.820;4.400;2022-07-10T04:51:57;5.00;;;1.95;;
23696;SDS011;48864;50.820;4.400;2022-07-10T04:54:23;3.08;;;1.58;;
23696;SDS011;48864;50.820;4.400;2022-07-10T04:56:49;8.80;;;1.88;;
23696;SDS011;48864;50.820;4.400;2022-07-10T04:59:14;5.82;;;2.15;;
23696;SDS011;48864;50.820;4.400;2022-07-10T05:01:40;3.70;;;1.75;;
23696;SDS011;48864;50.820;4.400;2022-07-10T05:04:06;3.75;;;1.60;;
23696;SDS011;48864;50.820;4.400;2022-07-10T05:06:32;3.70;;;1.77;;
23696;SDS011;48864;50.820;4.400;2022-07-10T05:08:57;5.05;;;2.05;;
23696;SDS011;48864;50.820;4.400;2022-07-10T05:11:24;4.57;;;1.90;;
23696;SDS011;48864;50.820;4.400;2022-07-10T05:13:50;6.25;;;1.92;;
23696;SDS011;48864;50.820;4.400;2022-07-10T05:16:16;6.63;;;2.05;;
23696;SDS011;48864;50.820;4.400;2022-07-10T05:18:42;2.95;;;1.73;;
23696;SDS011;48864;50.820;4.400;2022-07-10T05:21:08;5.72;;;1.83;;
23696;SDS011;48864;50.820;4.400;2022-07-10T05:23:33;5.75;;;2.00;;
23696;SDS011;48864;50.820;4.400;2022-07-10T05:26:00;5.38;;;1.90;;
23696;SDS011;48864;50.820;4.400;2022-07-10T05:28:25;4.97;;;2.17;;
23696;SDS011;48864;50.820;4.400;2022-07-10T05:30:51;4.13;;;2.03;;
23696;SDS011;48864;50.820;4.400;2022-07-10T05:33:17;4.57;;;2.08;;
23696;SDS011;48864;50.820;4.400;2022-07-10T05:35:42;6.10;;;2.67;;
23696;SDS011;48864;50.820;4.400;2022-07-10T05:38:08;7.32;;;2.20;;
23696;SDS011;48864;50.820;4.400;2022-07-10T05:40:34;9.93;;;2.47;;
23696;SDS011;48864;50.820;4.400;2022-07-10T05:42:59;4.38;;;2.38;;
23696;SDS011;48864;50.820;4.400;2022-07-10T05:45:25;3.58;;;1.95;;
23696;SDS011;48864;50.820;4.400;2022-07-10T05:47:51;5.40;;;2.35;;
23696;SDS011;48864;50.820;4.400;2022-07-10T05:50:16;8.25;;;2.50;;
23696;SDS011;48864;50.820;4.400;2022-07-10T05:52:42;4.45;;;2.55;;
23696;SDS011;48864;50.820;4.400;2022-07-10T05:55:08;6.85;;;2.30;;
23696;SDS011;48864;50.820;4.400;2022-07-10T05:57:35;8.20;;;2.95;;
23696;SDS011;48864;50.820;4.400;2022-07-10T06:00:05;3.60;;;2.20;;
23696;SDS011;48864;50.820;4.400;2022-07-10T06:02:32;4.70;;;2.20;;
23696;SDS011;48864;50.820;4.400;2022-07-10T06:04:58;6.82;;;2.22;;
23696;SDS011;48864;50.820;4.400;2022-07-10T06:07:24;5.68;;;2.33;;
23696;SDS011;48864;50.820;4.400;2022-07-10T06:09:51;3.42;;;2.25;;
23696;SDS011;48864;50.820;4.400;2022-07-10T06:12:16;5.47;;;2.10;;
23696;SDS011;48864;50.820;4.400;2022-07-10T06:14:42;11.45;;;2.30;;
23696;SDS011;48864;50.820;4.400;2022-07-10T06:17:07;3.50;;;1.85;;
23696;SDS011;48864;50.820;4.400;2022-07-10T06:19:33;4.03;;;2.22;;
23696;SDS011;48864;50.820;4.400;2022-07-10T06:21:59;5.80;;;1.83;;
23696;SDS011;48864;50.820;4.400;2022-07-10T06:24:43;4.15;;;1.65;;
23696;SDS011;48864;50.820;4.400;2022-07-10T06:27:09;8.57;;;2.30;;
23696;SDS011;48864;50.820;4.400;2022-07-10T06:29:35;6.50;;;1.85;;
23696;SDS011;48864;50.820;4.400;2022-07-10T06:32:00;6.38;;;1.70;;
23696;SDS011;48864;50.820;4.400;2022-07-10T06:34:26;4.30;;;1.52;;
23696;SDS011;48864;50.820;4.400;2022-07-10T06:36:51;4.10;;;1.77;;
23696;SDS011;48864;50.820;4.400;2022-07-10T06:39:17;4.88;;;1.45;;
23696;SDS011;48864;50.820;4.400;2022-07-10T06:41:43;8.23;;;1.70;;
23696;SDS011;48864;50.820;4.400;2022-07-10T06:44:08;2.97;;;1.40;;
23696;SDS011;48864;50.820;4.400;2022-07-10T06:46:34;10.73;;;1.60;;
23696;SDS011;48864;50.820;4.400;2022-07-10T06:48:59;3.58;;;1.63;;
23696;SDS011;48864;50.820;4.400;2022-07-10T06:51:25;3.00;;;1.40;;
23696;SDS011;48864;50.820;4.400;2022-07-10T06:53:51;5.68;;;1.92;;
23696;SDS011;48864;50.820;4.400;2022-07-10T06:56:17;7.22;;;1.60;;
23696;SDS011;48864;50.820;4.400;2022-07-10T06:58:43;3.15;;;1.60;;
23696;SDS011;48864;50.820;4.400;2022-07-10T07:01:09;5.97;;;1.50;;
23696;SDS011;48864;50.820;4.400;2022-07-10T07:03:34;4.35;;;1.55;;
23696;SDS011;48864;50.820;4.400;2022-07-10T07:06:00;7.57;;;2.35;;
23696;SDS011;48864;50.820;4.400;2022-07-10T07:08:26;6.15;;;1.40;;
23696;SDS011;48864;50.820;4.400;2022-07-10T07:10:54;3.83;;;1.80;;
23696;SDS011;48864;50.820;4.400;2022-07-10T07:13:20;3.60;;;1.73;;
23696;SDS011;48864;50.820;4.400;2022-07-10T07:15:46;8.82;;;1.83;;
23696;SDS011;48864;50.820;4.400;2022-07-10T07:18:19;4.82;;;1.67;;
23696;SDS011;48864;50.820;4.400;2022-07-10T07:20:46;4.78;;;1.73;;
23696;SDS011;48864;50.820;4.400;2022-07-10T07:23:30;5.53;;;1.83;;
23696;SDS011;48864;50.820;4.400;2022-07-10T07:25:55;3.53;;;1.60;;
23696;SDS011;48864;50.820;4.400;2022-07-10T07:28:21;4.45;;;1.70;;
23696;SDS011;48864;50.820;4.400;2022-07-10T07:30:47;3.75;;;1.60;;
23696;SDS011;48864;50.820;4.400;2022-07-10T07:33:13;7.05;;;1.45;;
23696;SDS011;48864;50.820;4.400;2022-07-10T07:35:39;3.60;;;1.23;;
23696;SDS011;48864;50.820;4.400;2022-07-10T07:38:05;2.83;;;1.60;;
23696;SDS011;48864;50.820;4.400;2022-07-10T07:40:31;4.38;;;1.40;;
23696;SDS011;48864;50.820;4.400;2022-07-10T07:42:57;7.00;;;1.60;;
23696;SDS011;48864;50.820;4.400;2022-07-10T07:45:23;7.57;;;2.00;;
23696;SDS011;48864;50.820;4.400;2022-07-10T07:47:51;8.32;;;1.70;;
23696;SDS011;48864;50.820;4.400;2022-07-10T07:50:19;4.70;;;1.65;;
23696;SDS011;48864;50.820;4.400;2022-07-10T07:52:46;5.70;;;1.92;;
23696;SDS011;48864;50.820;4.400;2022-07-10T07:55:13;3.42;;;1.70;;
23696;SDS011;48864;50.820;4.400;2022-07-10T07:57:43;5.97;;;2.00;;
23696;SDS011;48864;50.820;4.400;2022-07-10T08:00:11;5.13;;;1.98;;
23696;SDS011;48864;50.820;4.400;2022-07-10T08:02:40;8.02;;;2.20;;
23696;SDS011;48864;50.820;4.400;2022-07-10T08:05:06;7.85;;;2.00;;
23696;SDS011;48864;50.820;4.400;2022-07-10T08:07:54;6.60;;;1.65;;
23696;SDS011;48864;50.820;4.400;2022-07-10T08:10:26;4.63;;;1.83;;
23696;SDS011;48864;50.820;4.400;2022-07-10T08:12:52;6.53;;;1.92;;
23696;SDS011;48864;50.820;4.400;2022-07-10T08:15:19;4.85;;;1.80;;
23696;SDS011;48864;50.820;4.400;2022-07-10T08:17:48;7.65;;;1.80;;
23696;SDS011;48864;50.820;4.400;2022-07-10T08:20:17;5.88;;;2.08;;
23696;SDS011;48864;50.820;4.400;2022-07-10T08:22:43;5.65;;;1.77;;
23696;SDS011;48864;50.820;4.400;2022-07-10T08:25:12;5.85;;;1.75;;
23696;SDS011;48864;50.820;4.400;2022-07-10T08:27:38;6.85;;;2.30;;
23696;SDS011;48864;50.820;4.400;2022-07-10T08:30:05;5.13;;;1.98;;
23696;SDS011;48864;50.820;4.400;2022-07-10T08:32:32;5.95;;;1.90;;
23696;SDS011;48864;50.820;4.400;2022-07-10T08:34:57;4.45;;;2.28;;
23696;SDS011;48864;50.820;4.400;2022-07-10T08:37:24;4.90;;;2.10;;
23696;SDS011;48864;50.820;4.400;2022-07-10T08:39:49;5.30;;;1.70;;
23696;SDS011;48864;50.820;4.400;2022-07-10T08:42:15;4.82;;;1.90;;
23696;SDS011;48864;50.820;4.400;2022-07-10T08:44:41;5.32;;;2.00;;
23696;SDS011;48864;50.820;4.400;2022-07-10T08:47:07;6.97;;;2.03;;
23696;SDS011;48864;50.820;4.400;2022-07-10T08:49:33;3.85;;;1.90;;
23696;SDS011;48864;50.820;4.400;2022-07-10T08:52:11;5.57;;;2.17;;
23696;SDS011;48864;50.820;4.400;2022-07-10T08:54:48;6.97;;;1.90;;
23696;SDS011;48864;50.820;4.400;2022-07-10T08:57:15;3.58;;;1.80;;
23696;SDS011;48864;50.820;4.400;2022-07-10T08:59:42;3.67;;;1.67;;
23696;SDS011;48864;50.820;4.400;2022-07-10T09:02:08;3.45;;;1.95;;
23696;SDS011;48864;50.820;4.400;2022-07-10T09:04:33;5.47;;;2.15;;
23696;SDS011;48864;50.820;4.400;2022-07-10T09:06:59;5.22;;;1.50;;
23696;SDS011;48864;50.820;4.400;2022-07-10T09:09:24;5.28;;;1.65;;
23696;SDS011;48864;50.820;4.400;2022-07-10T09:12:00;5.70;;;1.80;;
23696;SDS011;48864;50.820;4.400;2022-07-10T09:14:26;11.02;;;2.20;;
23696;SDS011;48864;50.820;4.400;2022-07-10T09:16:52;4.72;;;1.60;;
23696;SDS011;48864;50.820;4.400;2022-07-10T09:19:19;4.55;;;1.60;;
23696;SDS011;48864;50.820;4.400;2022-07-10T09:21:46;3.40;;;1.70;;
23696;SDS011;48864;50.820;4.400;2022-07-10T09:24:13;3.22;;;1.58;;
23696;SDS011;48864;50.820;4.400;2022-07-10T09:26:39;5.00;;;1.83;;
23696;SDS011;48864;50.820;4.400;2022-07-10T09:29:12;4.85;;;1.70;;
23696;SDS011;48864;50.820;4.400;2022-07-10T09:31:51;3.97;;;1.90;;
23696;SDS011;48864;50.820;4.400;2022-07-10T09:34:18;4.13;;;1.98;;
23696;SDS011;48864;50.820;4.400;2022-07-10T09:37:02;3.15;;;1.90;;
23696;SDS011;48864;50.820;4.400;2022-07-10T09:39:50;5.93;;;1.73;;
23696;SDS011;48864;50.820;4.400;2022-07-10T09:42:27;8.32;;;2.00;;
23696;SDS011;48864;50.820;4.400;2022-07-10T09:47:42;6.03;;;1.80;;
23696;SDS011;48864;50.820;4.400;2022-07-10T09:50:26;3.63;;;1.67;;
23696;SDS011;48864;50.820;4.400;2022-07-10T09:53:05;3.70;;;1.90;;
23696;SDS011;48864;50.820;4.400;2022-07-10T09:55:35;3.08;;;1.80;;
23696;SDS011;48864;50.820;4.400;2022-07-10T09:58:02;3.70;;;1.63;;
23696;SDS011;48864;50.820;4.400;2022-07-10T10:03:02;2.90;;;1.88;;
23696;SDS011;48864;50.820;4.400;2022-07-10T10:05:36;3.78;;;1.90;;
23696;SDS011;48864;50.820;4.400;2022-07-10T10:08:17;2.92;;;1.70;;
23696;SDS011;48864;50.820;4.400;2022-07-10T10:10:47;4.13;;;2.15;;
23696;SDS011;48864;50.820;4.400;2022-07-10T10:15:45;5.22;;;2.10;;
23696;SDS011;48864;50.820;4.400;2022-07-10T10:18:19;4.72;;;2.20;;
23696;SDS011;48864;50.820;4.400;2022-07-10T10:20:46;5.43;;;2.50;;
23696;SDS011;48864;50.820;4.400;2022-07-10T10:23:13;6.70;;;2.67;;
23696;SDS011;48864;50.820;4.400;2022-07-10T10:25:46;8.93;;;2.75;;
23696;SDS011;48864;50.820;4.400;2022-07-10T10:28:16;5.75;;;2.88;;
23696;SDS011;48864;50.820;4.400;2022-07-10T10:30:50;5.40;;;2.53;;
23696;SDS011;48864;50.820;4.400;2022-07-10T10:35:58;5.75;;;2.60;;
23696;SDS011;48864;50.820;4.400;2022-07-10T10:38:24;5.60;;;2.58;;
23696;SDS011;48864;50.820;4.400;2022-07-10T10:41:26;5.47;;;2.30;;
23696;SDS011;48864;50.820;4.400;2022-07-10T10:49:18;6.72;;;3.15;;
23696;SDS011;48864;50.820;4.400;2022-07-10T10:51:57;4.50;;;3.10;;
23696;SDS011;48864;50.820;4.400;2022-07-10T10:54:23;5.82;;;3.40;;
23696;SDS011;48864;50.820;4.400;2022-07-10T10:59:53;4.45;;;3.22;;
23696;SDS011;48864;50.820;4.400;2022-07-10T11:04:48;5.43;;;3.40;;
23696;SDS011;48864;50.820;4.400;2022-07-10T11:10:35;4.53;;;2.88;;
23696;SDS011;48864;50.820;4.400;2022-07-10T11:18:10;7.88;;;3.15;;
23696;SDS011;48864;50.820;4.400;2022-07-10T11:20:47;5.68;;;2.92;;
23696;SDS011;48864;50.820;4.400;2022-07-10T11:26:07;5.82;;;3.20;;
23696;SDS011;48864;50.820;4.400;2022-07-10T11:31:12;5.65;;;2.78;;
23696;SDS011;48864;50.820;4.400;2022-07-10T11:33:42;5.38;;;2.75;;
23696;SDS011;48864;50.820;4.400;2022-07-10T11:36:13;4.38;;;2.70;;
23696;SDS011;48864;50.820;4.400;2022-07-10T11:38:40;5.88;;;2.78;;
23696;SDS011;48864;50.820;4.400;2022-07-10T11:41:14;7.00;;;2.80;;
23696;SDS011;48864;50.820;4.400;2022-07-10T11:43:50;3.10;;;2.55;;
23696;SDS011;48864;50.820;4.400;2022-07-10T11:46:24;6.85;;;2.53;;
23696;SDS011;48864;50.820;4.400;2022-07-10T11:48:57;2.70;;;2.20;;
23696;SDS011;48864;50.820;4.400;2022-07-10T11:51:34;2.92;;;2.28;;
23696;SDS011;48864;50.820;4.400;2022-07-10T11:54:09;4.82;;;2.97;;
23696;SDS011;48864;50.820;4.400;2022-07-10T11:56:41;6.72;;;2.67;;
23696;SDS011;48864;50.820;4.400;2022-07-10T11:59:11;4.70;;;2.15;;
23696;SDS011;48864;50.820;4.400;2022-07-10T12:01:45;6.00;;;2.50;;
23696;SDS011;48864;50.820;4.400;2022-07-10T12:04:13;6.90;;;2.20;;
23696;SDS011;48864;50.820;4.400;2022-07-10T12:06:44;2.90;;;2.15;;
23696;SDS011;48864;50.820;4.400;2022-07-10T12:09:13;3.78;;;2.28;;
23696;SDS011;48864;50.820;4.400;2022-07-10T12:11:40;6.85;;;2.22;;
23696;SDS011;48864;50.820;4.400;2022-07-10T12:14:14;4.60;;;2.38;;
23696;SDS011;48864;50.820;4.400;2022-07-10T12:16:45;6.47;;;2.20;;
23696;SDS011;48864;50.820;4.400;2022-07-10T12:19:12;4.65;;;2.38;;
23696;SDS011;48864;50.820;4.400;2022-07-10T12:21:43;5.45;;;2.60;;
23696;SDS011;48864;50.820;4.400;2022-07-10T12:24:09;2.83;;;1.90;;
23696;SDS011;48864;50.820;4.400;2022-07-10T12:26:36;4.85;;;1.95;;
23696;SDS011;48864;50.820;4.400;2022-07-10T12:29:03;4.30;;;2.30;;
23696;SDS011;48864;50.820;4.400;2022-07-10T12:31:30;3.67;;;3.03;;
23696;SDS011;48864;50.820;4.400;2022-07-10T12:34:02;6.03;;;2.25;;
23696;SDS011;48864;50.820;4.400;2022-07-10T12:36:48;3.60;;;2.30;;
23696;SDS011;48864;50.820;4.400;2022-07-10T12:39:24;2.40;;;1.90;;
23696;SDS011;48864;50.820;4.400;2022-07-10T12:41:54;4.60;;;2.42;;
23696;SDS011;48864;50.820;4.400;2022-07-10T12:44:34;3.65;;;1.83;;
23696;SDS011;48864;50.820;4.400;2022-07-10T12:47:19;3.70;;;1.77;;
23696;SDS011;48864;50.820;4.400;2022-07-10T12:57:51;5.55;;;1.85;;
23696;SDS011;48864;50.820;4.400;2022-07-10T13:00:31;4.13;;;1.92;;
23696;SDS011;48864;50.820;4.400;2022-07-10T13:03:06;5.22;;;1.80;;
23696;SDS011;48864;50.820;4.400;2022-07-10T13:05:34;4.93;;;2.10;;
23696;SDS011;48864;50.820;4.400;2022-07-10T13:08:11;3.33;;;1.90;;
23696;SDS011;48864;50.820;4.400;2022-07-10T13:11:00;3.97;;;1.73;;
23696;SDS011;48864;50.820;4.400;2022-07-10T13:13:26;2.90;;;1.80;;
23696;SDS011;48864;50.820;4.400;2022-07-10T13:15:53;3.08;;;1.70;;
23696;SDS011;48864;50.820;4.400;2022-07-10T13:18:20;3.78;;;1.40;;
23696;SDS011;48864;50.820;4.400;2022-07-10T13:20:47;4.25;;;1.80;;
23696;SDS011;48864;50.820;4.400;2022-07-10T13:23:14;3.08;;;1.42;;
23696;SDS011;48864;50.820;4.400;2022-07-10T13:25:40;3.42;;;1.95;;
23696;SDS011;48864;50.820;4.400;2022-07-10T13:28:06;3.13;;;2.05;;
23696;SDS011;48864;50.820;4.400;2022-07-10T13:30:34;3.13;;;1.70;;
23696;SDS011;48864;50.820;4.400;2022-07-10T13:33:00;2.97;;;1.40;;
23696;SDS011;48864;50.820;4.400;2022-07-10T13:35:29;4.10;;;1.75;;
23696;SDS011;48864;50.820;4.400;2022-07-10T13:37:56;1.63;;;1.27;;
23696;SDS011;48864;50.820;4.400;2022-07-10T13:40:25;5.13;;;1.38;;
23696;SDS011;48864;50.820;4.400;2022-07-10T13:42:51;6.00;;;1.40;;
23696;SDS011;48864;50.820;4.400;2022-07-10T13:45:17;2.70;;;1.45;;
23696;SDS011;48864;50.820;4.400;2022-07-10T13:47:43;3.97;;;1.40;;
23696;SDS011;48864;50.820;4.400;2022-07-10T13:50:09;3.50;;;1.17;;
23696;SDS011;48864;50.820;4.400;2022-07-10T13:52:34;2.65;;;1.10;;
23696;SDS011;48864;50.820;4.400;2022-07-10T13:55:00;2.78;;;1.15;;
23696;SDS011;48864;50.820;4.400;2022-07-10T13:57:26;3.75;;;1.42;;
23696;SDS011;48864;50.820;4.400;2022-07-10T13:59:52;2.05;;;1.35;;
23696;SDS011;48864;50.820;4.400;2022-07-10T14:02:19;3.50;;;1.48;;
23696;SDS011;48864;50.820;4.400;2022-07-10T14:04:45;2.55;;;1.30;;
23696;SDS011;48864;50.820;4.400;2022-07-10T14:07:10;2.30;;;1.30;;
23696;SDS011;48864;50.820;4.400;2022-07-10T14:09:36;2.80;;;1.00;;
23696;SDS011;48864;50.820;4.400;2022-07-10T14:12:02;1.70;;;1.10;;
23696;SDS011;48864;50.820;4.400;2022-07-10T14:14:27;4.05;;;1.15;;
23696;SDS011;48864;50.820;4.400;2022-07-10T14:16:53;1.20;;;1.10;;
23696;SDS011;48864;50.820;4.400;2022-07-10T14:19:18;2.63;;;1.65;;
23696;SDS011;48864;50.820;4.400;2022-07-10T14:21:44;3.05;;;1.23;;
23696;SDS011;48864;50.820;4.400;2022-07-10T14:24:10;2.28;;;1.30;;
23696;SDS011;48864;50.820;4.400;2022-07-10T14:26:35;2.65;;;1.20;;
23696;SDS011;48864;50.820;4.400;2022-07-10T14:29:02;2.10;;;1.35;;
23696;SDS011;48864;50.820;4.400;2022-07-10T14:31:28;4.57;;;1.45;;
23696;SDS011;48864;50.820;4.400;2022-07-10T14:33:54;2.45;;;1.13;;
23696;SDS011;48864;50.820;4.400;2022-07-10T14:36:20;3.92;;;1.27;;
23696;SDS011;48864;50.820;4.400;2022-07-10T14:41:23;2.85;;;1.40;;
23696;SDS011;48864;50.820;4.400;2022-07-10T14:43:49;5.53;;;1.73;;
23696;SDS011;48864;50.820;4.400;2022-07-10T14:46:15;3.78;;;1.30;;
23696;SDS011;48864;50.820;4.400;2022-07-10T14:48:40;3.05;;;1.77;;
23696;SDS011;48864;50.820;4.400;2022-07-10T14:51:06;2.45;;;1.20;;
23696;SDS011;48864;50.820;4.400;2022-07-10T14:53:32;1.92;;;1.10;;
23696;SDS011;48864;50.820;4.400;2022-07-10T14:56:03;3.33;;;1.50;;
23696;SDS011;48864;50.820;4.400;2022-07-10T14:58:29;4.00;;;1.00;;
23696;SDS011;48864;50.820;4.400;2022-07-10T15:00:55;1.95;;;1.05;;
23696;SDS011;48864;50.820;4.400;2022-07-10T15:03:21;2.72;;;1.25;;
23696;SDS011;48864;50.820;4.400;2022-07-10T15:05:46;2.80;;;0.98;;
23696;SDS011;48864;50.820;4.400;2022-07-10T15:08:12;3.53;;;1.00;;
23696;SDS011;48864;50.820;4.400;2022-07-10T15:10:39;2.70;;;1.30;;
23696;SDS011;48864;50.820;4.400;2022-07-10T15:13:07;4.22;;;1.20;;
23696;SDS011;48864;50.820;4.400;2022-07-10T15:15:33;3.00;;;1.00;;
23696;SDS011;48864;50.820;4.400;2022-07-10T15:17:58;2.47;;;1.10;;
23696;SDS011;48864;50.820;4.400;2022-07-10T15:20:24;1.98;;;1.20;;
23696;SDS011;48864;50.820;4.400;2022-07-10T15:22:49;1.27;;;0.88;;
23696;SDS011;48864;50.820;4.400;2022-07-10T15:25:15;4.05;;;1.20;;
23696;SDS011;48864;50.820;4.400;2022-07-10T15:27:41;3.35;;;1.10;;
23696;SDS011;48864;50.820;4.400;2022-07-10T15:30:07;1.33;;;1.00;;
23696;SDS011;48864;50.820;4.400;2022-07-10T15:32:36;2.05;;;1.25;;
23696;SDS011;48864;50.820;4.400;2022-07-10T15:35:02;3.08;;;1.40;;
23696;SDS011;48864;50.820;4.400;2022-07-10T15:37:27;2.90;;;0.95;;
23696;SDS011;48864;50.820;4.400;2022-07-10T15:39:54;1.52;;;0.93;;
23696;SDS011;48864;50.820;4.400;2022-07-10T15:42:19;2.58;;;1.00;;